createdAt,value
2018-11-10T00:01:41.413Z,81.50
2018-11-10T00:04:27.686Z,81.71
2018-11-10T00:06:56.735Z,81.86
2018-11-10T00:09:25.754Z,81.73
2018-11-10T00:11:56.130Z,81.64
2018-11-10T00:14:25.233Z,81.61
2018-11-10T00:16:54.186Z,81.78
2018-11-10T00:19:23.174Z,81.65
2018-11-10T00:21:52.207Z,81.82
2018-11-10T00:24:21.200Z,81.81
2018-11-10T00:26:50.225Z,81.81
2018-11-10T00:29:19.469Z,81.77
2018-11-10T00:31:48.514Z,81.72
2018-11-10T00:34:17.579Z,81.71
2018-11-10T00:36:46.603Z,81.55
2018-11-10T00:39:15.670Z,81.67
2018-11-10T00:41:44.762Z,81.49
2018-11-10T00:44:13.783Z,81.60
2018-11-10T00:46:42.817Z,81.59
2018-11-10T00:49:11.840Z,81.58
2018-11-10T00:51:40.998Z,81.25
2018-11-10T00:54:09.971Z,81.70
2018-11-10T00:56:39.006Z,81.26
2018-11-10T00:59:08.785Z,81.46
2018-11-10T01:01:37.773Z,81.40
2018-11-10T01:04:07.203Z,81.22
2018-11-10T01:06:36.229Z,81.16
2018-11-10T01:09:06.600Z,81.08
2018-11-10T01:11:35.658Z,81.04
2018-11-10T01:14:04.855Z,81.04
2018-11-10T01:16:33.869Z,80.97
2018-11-10T01:19:02.942Z,80.85
2018-11-10T01:21:31.995Z,81.00
2018-11-10T01:24:01.040Z,81.05
2018-11-10T01:26:30.012Z,81.16
2018-11-10T01:28:59.097Z,81.10
2018-11-10T01:31:28.165Z,81.11
2018-11-10T01:33:57.188Z,81.14
2018-11-10T01:36:26.176Z,80.93
2018-11-10T01:38:55.287Z,81.14
2018-11-10T01:41:24.287Z,81.08
2018-11-10T01:43:53.343Z,81.06
2018-11-10T01:46:22.504Z,80.94
2018-11-10T01:48:51.496Z,80.93
2018-11-10T01:51:20.520Z,81.14
2018-11-10T01:53:49.583Z,81.00
2018-11-10T01:56:18.580Z,81.10
2018-11-10T01:58:48.287Z,80.57
2018-11-10T02:01:17.304Z,80.88
2018-11-10T02:03:46.369Z,80.74
2018-11-10T02:06:15.538Z,80.92
2018-11-10T02:08:44.803Z,80.70
2018-11-10T02:11:14.096Z,80.85
2018-11-10T02:13:43.173Z,80.59
2018-11-10T02:16:12.261Z,80.52
2018-11-10T02:18:41.392Z,80.56
2018-11-10T02:21:10.594Z,80.75
2018-11-10T02:23:39.763Z,80.71
2018-11-10T02:26:08.882Z,80.58
2018-11-10T02:28:38.182Z,80.68
2018-11-10T02:31:07.371Z,80.73
2018-11-10T02:33:36.371Z,80.75
2018-11-10T02:36:05.656Z,80.64
2018-11-10T02:38:34.808Z,80.89
2018-11-10T02:41:03.825Z,81.20
2018-11-10T02:43:32.830Z,81.19
2018-11-10T02:46:02.073Z,80.97
2018-11-10T02:48:32.088Z,80.89
2018-11-10T02:51:01.074Z,80.99
2018-11-10T02:53:30.213Z,80.66
2018-11-10T02:55:59.352Z,80.80
2018-11-10T02:58:28.360Z,80.93
2018-11-10T03:00:57.501Z,81.00
2018-11-10T03:03:26.586Z,80.92
2018-11-10T03:05:55.827Z,80.99
2018-11-10T03:08:24.848Z,81.00
2018-11-10T03:10:53.856Z,81.06
2018-11-10T03:13:23.327Z,80.91
2018-11-10T03:15:52.413Z,81.06
2018-11-10T03:18:21.444Z,81.20
2018-11-10T03:20:50.701Z,81.25
2018-11-10T03:23:19.826Z,81.22
2018-11-10T03:25:48.862Z,81.36
2018-11-10T03:28:17.829Z,81.38
2018-11-10T03:30:47.200Z,81.37
2018-11-10T03:33:16.184Z,81.33
2018-11-10T03:35:45.860Z,81.14
2018-11-10T03:38:15.131Z,81.19
2018-11-10T03:40:44.359Z,81.03
2018-11-10T03:43:13.349Z,81.06
2018-11-10T03:45:42.330Z,81.04
2018-11-10T03:48:11.725Z,81.07
2018-11-10T03:50:40.708Z,81.04
2018-11-10T03:53:09.657Z,81.13
2018-11-10T03:55:38.826Z,81.08
2018-11-10T03:58:08.001Z,81.07
2018-11-10T04:00:37.017Z,81.07
2018-11-10T04:03:06.127Z,81.01
2018-11-10T04:05:35.122Z,81.01
2018-11-10T04:08:04.196Z,80.91
2018-11-10T04:10:33.221Z,80.89
2018-11-10T04:13:02.222Z,80.96
2018-11-10T04:15:31.315Z,80.98
2018-11-10T04:18:00.305Z,80.99
2018-11-10T04:20:29.330Z,80.81
2018-11-10T04:22:58.321Z,80.84
2018-11-10T04:25:27.344Z,80.89
2018-11-10T04:27:56.310Z,80.90
2018-11-10T04:30:25.335Z,80.94
2018-11-10T04:32:54.354Z,80.61
2018-11-10T04:35:23.339Z,80.73
2018-11-10T04:37:52.339Z,80.77
2018-11-10T04:40:21.345Z,80.55
2018-11-10T04:42:50.416Z,80.60
2018-11-10T04:45:19.493Z,80.67
2018-11-10T04:47:48.503Z,80.54
2018-11-10T04:50:17.531Z,80.32
2018-11-10T04:52:46.573Z,80.43
2018-11-10T04:55:15.522Z,80.22
2018-11-10T04:57:44.512Z,80.42
2018-11-10T05:00:15.068Z,80.31
2018-11-10T05:02:45.191Z,80.28
2018-11-10T05:05:14.314Z,80.06
2018-11-10T05:07:43.297Z,80.25
2018-11-10T05:10:12.501Z,80.08
2018-11-10T05:12:41.715Z,80.32
2018-11-10T05:15:12.254Z,80.33
2018-11-10T05:17:41.466Z,80.25
2018-11-10T05:20:11.509Z,80.31
2018-11-10T05:22:40.562Z,80.11
2018-11-10T05:25:11.112Z,80.34
2018-11-10T05:27:40.377Z,80.26
2018-11-10T05:30:09.993Z,80.21
2018-11-10T05:32:39.084Z,80.34
2018-11-10T05:35:08.804Z,80.36
2018-11-10T05:37:38.227Z,80.25
2018-11-10T05:40:08.840Z,80.13
2018-11-10T05:42:37.969Z,80.34
2018-11-10T05:45:07.716Z,80.54
2018-11-10T05:47:36.723Z,80.31
2018-11-10T05:50:06.491Z,80.40
2018-11-10T05:52:35.457Z,80.25
2018-11-10T05:55:04.553Z,80.26
2018-11-10T05:57:33.532Z,80.21
2018-11-10T06:00:02.541Z,80.08
2018-11-10T06:02:31.656Z,80.05
2018-11-10T06:05:00.670Z,80.15
2018-11-10T06:07:29.764Z,80.26
2018-11-10T06:09:58.871Z,80.24
2018-11-10T06:12:28.681Z,80.32
2018-11-10T06:14:57.691Z,80.18
2018-11-10T06:17:26.661Z,80.36
2018-11-10T06:19:55.678Z,80.21
2018-11-10T06:22:24.687Z,80.27
2018-11-10T06:24:53.653Z,80.14
2018-11-10T06:27:22.629Z,80.16
2018-11-10T06:29:51.687Z,80.34
2018-11-10T06:32:20.772Z,80.22
2018-11-10T06:34:49.810Z,80.32
2018-11-10T06:37:18.832Z,80.29
2018-11-10T06:39:47.902Z,80.41
2018-11-10T06:42:16.897Z,80.34
2018-11-10T06:44:45.883Z,80.22
2018-11-10T06:47:14.905Z,80.50
2018-11-10T06:49:43.932Z,80.65
2018-11-10T06:52:13.708Z,80.73
2018-11-10T06:54:42.689Z,80.78
2018-11-10T06:57:11.738Z,80.53
2018-11-10T06:59:40.808Z,80.42
2018-11-10T07:02:09.908Z,80.04
2018-11-10T07:04:38.932Z,80.52
2018-11-10T07:07:08.047Z,80.39
2018-11-10T07:09:37.221Z,80.15
2018-11-10T07:12:06.615Z,80.16
2018-11-10T07:14:35.637Z,80.19
2018-11-10T07:17:04.740Z,80.20
2018-11-10T07:19:33.744Z,80.12
2018-11-10T07:22:02.940Z,79.93
2018-11-10T07:24:31.969Z,80.14
2018-11-10T07:27:00.972Z,80.08
2018-11-10T07:29:29.991Z,80.08
2018-11-10T07:31:59.034Z,80.12
2018-11-10T07:34:28.022Z,79.86
2018-11-10T07:36:56.996Z,79.74
2018-11-10T07:39:26.040Z,79.87
2018-11-10T07:41:55.223Z,79.63
2018-11-10T07:44:24.236Z,79.43
2018-11-10T07:46:53.344Z,79.28
2018-11-10T07:49:22.413Z,79.25
2018-11-10T07:51:51.394Z,79.21
2018-11-10T07:54:20.476Z,78.97
2018-11-10T07:56:49.522Z,78.72
2018-11-10T07:59:18.557Z,78.78
2018-11-10T08:01:47.557Z,78.72
2018-11-10T08:04:16.740Z,78.73
2018-11-10T08:06:45.769Z,78.65
2018-11-10T08:09:14.764Z,78.55
2018-11-10T08:11:43.866Z,78.64
2018-11-10T08:14:12.916Z,78.86
2018-11-10T08:16:42.039Z,78.47
2018-11-10T08:19:11.106Z,78.71
2018-11-10T08:21:40.122Z,78.60
2018-11-10T08:24:09.237Z,78.70
2018-11-10T08:26:38.310Z,78.82
2018-11-10T08:29:07.347Z,79.06
2018-11-10T08:31:36.426Z,79.42
2018-11-10T08:34:05.734Z,79.67
2018-11-10T08:36:34.837Z,79.73
2018-11-10T08:39:04.406Z,79.98
2018-11-10T08:41:33.471Z,80.07
2018-11-10T08:44:02.569Z,79.96
2018-11-10T08:46:31.610Z,80.07
2018-11-10T08:49:00.666Z,80.25
2018-11-10T08:51:30.118Z,80.23
2018-11-10T08:53:59.136Z,80.11
2018-11-10T08:56:28.729Z,80.23
2018-11-10T08:58:58.452Z,80.54
2018-11-10T09:01:28.177Z,80.37
2018-11-10T09:03:57.297Z,80.78
2018-11-10T09:06:26.328Z,80.85
2018-11-10T09:08:55.340Z,80.88
2018-11-10T09:11:24.438Z,80.86
2018-11-10T09:13:53.481Z,81.15
2018-11-10T09:16:22.634Z,81.09
2018-11-10T09:18:51.665Z,81.23
2018-11-10T09:21:20.961Z,81.21
2018-11-10T09:23:50.033Z,81.01
2018-11-10T09:26:19.065Z,81.21
2018-11-10T09:28:48.148Z,81.03
2018-11-10T09:31:17.441Z,80.98
2018-11-10T09:33:46.765Z,80.92
2018-11-10T09:36:15.835Z,81.02
2018-11-10T09:38:44.993Z,81.04
2018-11-10T09:41:14.101Z,81.10
2018-11-10T09:43:43.220Z,80.89
2018-11-10T09:46:12.576Z,80.76
2018-11-10T09:48:41.784Z,80.48
2018-11-10T09:51:10.874Z,80.38
2018-11-10T09:53:39.896Z,80.37
2018-11-10T09:56:09.022Z,80.28
2018-11-10T09:58:38.144Z,80.08
2018-11-10T10:01:07.315Z,80.12
2018-11-10T10:03:36.364Z,80.13
2018-11-10T10:06:05.764Z,79.85
2018-11-10T10:08:34.794Z,79.88
2018-11-10T10:11:03.880Z,80.07
2018-11-10T10:13:33.064Z,80.14
2018-11-10T10:16:02.250Z,79.92
2018-11-10T10:18:31.231Z,79.96
2018-11-10T10:21:00.490Z,79.98
2018-11-10T10:23:29.612Z,80.01
2018-11-10T10:25:58.788Z,79.87
2018-11-10T10:28:28.078Z,79.59
2018-11-10T10:30:57.097Z,79.61
2018-11-10T10:33:26.207Z,79.70
2018-11-10T10:35:55.386Z,79.54
2018-11-10T10:38:24.440Z,79.43
2018-11-10T10:40:53.572Z,79.09
2018-11-10T10:43:22.573Z,79.17
2018-11-10T10:45:51.611Z,79.09
2018-11-10T10:48:20.765Z,79.05
2018-11-10T10:50:49.872Z,79.08
2018-11-10T10:53:19.185Z,79.02
2018-11-10T10:55:48.336Z,79.14
2018-11-10T10:58:17.402Z,79.16
2018-11-10T11:00:51.557Z,79.25
2018-11-10T11:03:25.876Z,79.20
2018-11-10T11:05:58.852Z,79.70
2018-11-10T11:08:28.176Z,79.59
2018-11-10T11:10:57.233Z,79.99
2018-11-10T11:13:26.261Z,79.91
2018-11-10T11:15:55.380Z,79.93
2018-11-10T11:18:24.505Z,79.98
2018-11-10T11:21:00.081Z,80.04
2018-11-10T11:23:29.107Z,79.91
2018-11-10T11:25:58.192Z,80.02
2018-11-10T11:28:27.367Z,79.88
2018-11-10T11:30:56.689Z,79.80
2018-11-10T11:33:25.749Z,79.80
2018-11-10T11:35:55.136Z,79.76
2018-11-10T11:38:24.295Z,79.71
2018-11-10T11:40:53.516Z,79.52
2018-11-10T11:43:22.830Z,79.53
2018-11-10T11:45:52.024Z,79.17
2018-11-10T11:48:21.187Z,79.12
2018-11-10T11:50:50.269Z,79.01
2018-11-10T11:53:19.318Z,78.97
2018-11-10T11:55:49.775Z,78.74
2018-11-10T11:58:18.895Z,78.62
2018-11-10T12:00:47.989Z,78.26
2018-11-10T12:03:17.184Z,78.03
2018-11-10T12:05:48.261Z,78.17
2018-11-10T12:08:17.710Z,77.96
2018-11-10T12:10:47.816Z,77.78
2018-11-10T12:13:16.831Z,77.76
2018-11-10T12:15:45.897Z,77.75
2018-11-10T12:18:15.162Z,77.74
2018-11-10T12:20:44.304Z,77.66
2018-11-10T12:23:13.417Z,77.71
2018-11-10T12:25:42.470Z,77.50
2018-11-10T12:28:11.782Z,77.25
2018-11-10T12:30:40.919Z,76.79
2018-11-10T12:33:09.968Z,76.87
2018-11-10T12:35:38.943Z,76.94
2018-11-10T12:38:07.979Z,77.07
2018-11-10T12:40:37.016Z,76.95
2018-11-10T12:43:06.446Z,76.89
2018-11-10T12:45:35.567Z,76.78
2018-11-10T12:48:04.948Z,76.75
2018-11-10T12:50:33.947Z,76.81
2018-11-10T12:53:02.969Z,76.66
2018-11-10T12:55:31.953Z,76.90
2018-11-10T12:58:02.051Z,76.75
2018-11-10T13:00:31.206Z,76.55
2018-11-10T13:03:00.655Z,76.39
2018-11-10T13:05:29.714Z,76.43
2018-11-10T13:07:58.819Z,76.33
2018-11-10T13:10:28.809Z,76.28
2018-11-10T13:12:57.945Z,75.99
2018-11-10T13:15:27.147Z,76.17
2018-11-10T13:17:56.175Z,75.84
2018-11-10T13:20:25.273Z,75.85
2018-11-10T13:22:54.472Z,76.10
2018-11-10T13:25:23.631Z,75.69
2018-11-10T13:27:52.732Z,76.12
2018-11-10T13:30:23.159Z,75.72
2018-11-10T13:32:52.277Z,75.93
2018-11-10T13:35:21.337Z,75.83
2018-11-10T13:37:50.530Z,75.80
2018-11-10T13:40:19.600Z,76.16
2018-11-10T13:42:49.240Z,75.86
2018-11-10T13:45:18.182Z,75.89
2018-11-10T13:47:48.125Z,75.52
2018-11-10T13:50:17.135Z,75.33
2018-11-10T13:52:46.649Z,75.37
2018-11-10T13:55:15.428Z,75.67
2018-11-10T13:57:44.536Z,75.52
2018-11-10T14:00:15.528Z,75.38
2018-11-10T14:02:45.222Z,75.43
2018-11-10T14:05:15.112Z,75.66
2018-11-10T14:07:44.383Z,75.40
2018-11-10T14:10:14.627Z,75.15
2018-11-10T14:12:44.563Z,75.30
2018-11-10T14:15:13.771Z,75.37
2018-11-10T14:17:43.200Z,75.30
2018-11-10T14:20:14.515Z,75.27
2018-11-10T14:22:44.281Z,75.27
2018-11-10T14:25:14.586Z,75.23
2018-11-10T14:27:44.174Z,75.46
2018-11-10T14:30:14.711Z,75.41
2018-11-10T14:32:44.127Z,75.47
2018-11-10T14:35:13.599Z,75.25
2018-11-10T14:37:42.676Z,75.50
2018-11-10T14:40:13.236Z,75.18
2018-11-10T14:42:43.055Z,75.49
2018-11-10T14:45:13.804Z,75.45
2018-11-10T14:47:43.757Z,75.63
2018-11-10T14:50:13.903Z,75.84
2018-11-10T14:52:43.817Z,75.92
2018-11-10T14:55:13.512Z,75.83
2018-11-10T14:57:43.053Z,76.06
2018-11-10T15:00:19.514Z,75.88
2018-11-10T15:02:48.624Z,75.96
2018-11-10T15:05:17.623Z,76.24
2018-11-10T15:07:47.139Z,76.14
2018-11-10T15:10:17.237Z,76.30
2018-11-10T15:12:46.607Z,76.21
2018-11-10T15:15:16.626Z,76.04
2018-11-10T15:17:46.383Z,76.28
2018-11-10T15:20:17.579Z,76.23
2018-11-10T15:22:47.529Z,76.07
2018-11-10T15:25:18.855Z,75.96
2018-11-10T15:27:47.928Z,76.20
2018-11-10T15:30:18.300Z,75.88
2018-11-10T15:32:48.533Z,75.94
2018-11-10T15:35:19.064Z,75.64
2018-11-10T15:37:49.478Z,75.78
2018-11-10T15:40:19.225Z,75.83
2018-11-10T15:42:48.434Z,75.75
2018-11-10T15:45:19.221Z,75.52
2018-11-10T15:47:48.504Z,75.87
2018-11-10T15:50:18.501Z,75.72
2018-11-10T15:52:47.570Z,75.84
2018-11-10T15:55:16.592Z,75.88
2018-11-10T15:57:45.596Z,75.92
2018-11-10T16:00:16.072Z,76.05
2018-11-10T16:02:45.243Z,76.37
2018-11-10T16:05:14.798Z,76.27
2018-11-10T16:07:43.906Z,76.65
2018-11-10T16:10:13.314Z,76.61
2018-11-10T16:12:42.468Z,76.54
2018-11-10T16:15:13.662Z,76.97
2018-11-10T16:17:42.919Z,76.71
2018-11-10T16:20:14.769Z,77.06
2018-11-10T16:22:45.207Z,77.05
2018-11-10T16:25:14.283Z,76.92
2018-11-10T16:27:43.460Z,77.30
2018-11-10T16:30:14.080Z,77.48
2018-11-10T16:32:43.212Z,77.52
2018-11-10T16:35:12.294Z,77.53
2018-11-10T16:37:42.611Z,77.60
2018-11-10T16:40:14.409Z,77.55
2018-11-10T16:42:44.672Z,77.54
2018-11-10T16:45:14.558Z,77.48
2018-11-10T16:47:43.624Z,77.46
2018-11-10T16:50:13.362Z,77.52
2018-11-10T16:52:43.546Z,77.55
2018-11-10T16:55:12.667Z,77.56
2018-11-10T16:57:41.643Z,77.65
2018-11-10T17:00:13.183Z,77.83
2018-11-10T17:02:43.144Z,77.79
2018-11-10T17:05:12.165Z,77.63
2018-11-10T17:07:41.189Z,77.57
2018-11-10T17:10:13.165Z,77.74
2018-11-10T17:12:42.694Z,77.74
2018-11-10T17:15:11.845Z,77.58
2018-11-10T17:17:40.925Z,77.73
2018-11-10T17:20:12.585Z,77.77
2018-11-10T17:22:41.765Z,77.72
2018-11-10T17:25:11.618Z,77.92
2018-11-10T17:27:41.217Z,77.90
2018-11-10T17:30:13.346Z,78.08
2018-11-10T17:32:42.772Z,78.18
2018-11-10T17:35:12.595Z,78.49
2018-11-10T17:37:41.802Z,78.39
2018-11-10T17:40:11.997Z,78.48
2018-11-10T17:42:41.007Z,78.44
2018-11-10T17:45:15.066Z,78.49
2018-11-10T17:47:44.459Z,78.43
2018-11-10T17:50:15.682Z,78.46
2018-11-10T17:52:44.776Z,78.51
2018-11-10T17:55:14.862Z,78.45
2018-11-10T17:57:44.441Z,78.39
2018-11-10T18:00:13.980Z,78.49
2018-11-10T18:02:43.070Z,78.47
2018-11-10T18:05:13.945Z,78.44
2018-11-10T18:07:47.005Z,78.33
2018-11-10T18:10:18.713Z,78.17
2018-11-10T18:12:49.030Z,78.19
2018-11-10T18:15:20.336Z,78.41
2018-11-10T18:17:49.374Z,78.45
2018-11-10T18:20:19.812Z,78.56
2018-11-10T18:22:49.867Z,78.78
2018-11-10T18:25:19.093Z,78.65
2018-11-10T18:27:48.232Z,78.62
2018-11-10T18:30:19.190Z,78.72
2018-11-10T18:32:48.344Z,78.96
2018-11-10T18:35:17.429Z,78.91
2018-11-10T18:37:47.042Z,78.96
2018-11-10T18:40:16.223Z,78.90
2018-11-10T18:42:45.258Z,79.06
2018-11-10T18:45:14.554Z,78.96
2018-11-10T18:47:43.721Z,78.96
2018-11-10T18:50:15.256Z,78.82
2018-11-10T18:52:44.714Z,79.07
2018-11-10T18:55:14.936Z,78.95
2018-11-10T18:57:44.676Z,79.04
2018-11-10T19:00:17.113Z,79.23
2018-11-10T19:02:46.731Z,79.21
2018-11-10T19:05:16.972Z,79.34
2018-11-10T19:07:47.053Z,79.29
2018-11-10T19:10:17.435Z,79.37
2018-11-10T19:12:46.763Z,79.13
2018-11-10T19:15:19.360Z,79.25
2018-11-10T19:17:48.475Z,79.12
2018-11-10T19:20:18.739Z,79.26
2018-11-10T19:22:48.041Z,79.15
2018-11-10T19:25:17.211Z,79.44
2018-11-10T19:27:46.513Z,79.27
2018-11-10T19:30:17.865Z,79.27
2018-11-10T19:32:47.882Z,79.32
2018-11-10T19:35:17.866Z,79.32
2018-11-10T19:37:47.582Z,79.27
2018-11-10T19:40:16.726Z,79.26
2018-11-10T19:42:46.516Z,79.51
2018-11-10T19:45:16.897Z,79.32
2018-11-10T19:47:46.635Z,79.30
2018-11-10T19:50:16.196Z,79.56
2018-11-10T19:52:46.500Z,79.53
2018-11-10T19:55:16.820Z,79.38
2018-11-10T19:57:46.002Z,79.59
2018-11-10T20:00:21.499Z,79.65
2018-11-10T20:02:50.772Z,79.78
2018-11-10T20:05:19.918Z,79.74
2018-11-10T20:07:49.246Z,79.68
2018-11-10T20:10:18.305Z,79.90
2018-11-10T20:12:47.466Z,79.87
2018-11-10T20:15:17.647Z,80.01
2018-11-10T20:17:46.987Z,79.96
2018-11-10T20:20:17.386Z,79.95
2018-11-10T20:22:47.357Z,80.04
2018-11-10T20:25:17.692Z,80.06
2018-11-10T20:27:46.733Z,80.16
2018-11-10T20:30:18.083Z,80.18
2018-11-10T20:32:47.373Z,80.09
2018-11-10T20:35:16.370Z,80.37
2018-11-10T20:37:47.206Z,80.26
2018-11-10T20:40:17.678Z,80.20
2018-11-10T20:42:46.802Z,80.20
2018-11-10T20:45:18.891Z,80.40
2018-11-10T20:47:47.934Z,80.04
2018-11-10T20:50:17.493Z,80.10
2018-11-10T20:52:46.864Z,79.85
2018-11-10T20:55:16.165Z,79.95
2018-11-10T20:57:45.802Z,80.08
2018-11-10T21:00:18.945Z,79.91
2018-11-10T21:02:48.276Z,79.87
2018-11-10T21:05:17.640Z,80.00
2018-11-10T21:07:47.390Z,79.91
2018-11-10T21:10:18.070Z,79.81
2018-11-10T21:12:47.830Z,79.87
2018-11-10T21:15:17.672Z,79.85
2018-11-10T21:17:47.166Z,79.72
2018-11-10T21:20:16.294Z,79.86
2018-11-10T21:22:45.541Z,79.78
2018-11-10T21:25:16.163Z,79.83
2018-11-10T21:27:45.664Z,79.54
2018-11-10T21:30:16.344Z,79.86
2018-11-10T21:32:45.728Z,79.78
2018-11-10T21:35:15.024Z,79.72
2018-11-10T21:37:44.051Z,79.73
2018-11-10T21:40:15.439Z,79.55
2018-11-10T21:42:44.748Z,79.45
2018-11-10T21:45:14.539Z,79.52
2018-11-10T21:47:43.696Z,79.42
2018-11-10T21:50:14.176Z,79.33
2018-11-10T21:52:43.980Z,79.31
2018-11-10T21:55:14.623Z,79.27
2018-11-10T21:57:44.278Z,79.16
2018-11-10T22:00:15.253Z,79.16
2018-11-10T22:02:44.935Z,79.06
2018-11-10T22:05:13.910Z,79.00
2018-11-10T22:07:42.895Z,79.05
2018-11-10T22:10:13.605Z,79.10
2018-11-10T22:12:43.110Z,79.07
2018-11-10T22:15:14.731Z,79.24
2018-11-10T22:17:44.523Z,79.18
2018-11-10T22:20:15.877Z,79.20
2018-11-10T22:22:44.871Z,79.30
2018-11-10T22:25:14.313Z,79.21
2018-11-10T22:27:44.584Z,79.30
2018-11-10T22:30:15.720Z,79.22
2018-11-10T22:32:45.289Z,79.15
2018-11-10T22:35:14.537Z,79.18
2018-11-10T22:37:43.590Z,79.32
2018-11-10T22:40:15.834Z,79.29
2018-11-10T22:42:45.215Z,79.24
2018-11-10T22:45:16.929Z,79.22
2018-11-10T22:47:46.043Z,79.42
2018-11-10T22:50:16.634Z,79.05
2018-11-10T22:52:45.795Z,79.14
2018-11-10T22:55:14.844Z,79.27
2018-11-10T22:57:43.852Z,79.23
2018-11-10T23:00:20.049Z,79.44
2018-11-10T23:02:51.211Z,79.32
2018-11-10T23:05:20.896Z,79.46
2018-11-10T23:07:49.893Z,79.46
2018-11-10T23:10:19.198Z,79.42
2018-11-10T23:12:49.464Z,79.45
2018-11-10T23:15:18.695Z,79.40
2018-11-10T23:18:05.714Z,79.46
2018-11-10T23:20:53.314Z,79.51
2018-11-10T23:23:40.701Z,79.71
2018-11-10T23:26:26.803Z,79.69
2018-11-10T23:29:13.259Z,79.67
2018-11-10T23:31:42.955Z,79.52
2018-11-10T23:34:32.151Z,79.69
2018-11-10T23:37:18.104Z,79.53
2018-11-10T23:40:06.587Z,79.67
2018-11-10T23:42:55.470Z,79.82
2018-11-10T23:45:42.141Z,79.63
2018-11-10T23:48:29.782Z,79.73
2018-11-10T23:50:59.418Z,79.54
2018-11-10T23:53:44.918Z,79.50
2018-11-10T23:56:26.804Z,79.52
2018-11-10T23:59:11.271Z,79.74
